Time;durP1;ratioP1;P1;durP2;ratioP2;P2;SDS_P1;SDS_P2;PMS_P1;PMS_P2;Temp;Humidity;BMP_temperature;BMP_pressure;BME280_temperature;BME280_humidity;BME280_pressure;Samples;Min_cycle;Max_cycle;Signal;HPM_P1;HPM_P2
2024/02/04 09:48:30;;;;;;;;;;;;;;;;;;;;;
2024/02/04 13:17:33;;;;;;;6.30;1.50;;;13.90;86.60;;;;;;6297417;22;1502716;-88
2024/02/04 13:19:58;;;;;;;9.10;1.85;;;14.00;87.30;;;;;;6323770;22;20003;-88
2024/02/04 13:22:24;;;;;;;7.05;2.00;;;14.00;88.00;;;;;;6315472;22;19999;-88
2024/02/04 13:24:49;;;;;;;8.05;1.20;;;14.10;88.60;;;;;;6288437;22;20000;-87
2024/02/04 13:27:17;;;;;;;6.30;1.60;;;14.10;89.00;;;;;;6278989;22;19998;-88
2024/02/04 13:29:43;;;;;;;4.03;1.40;;;14.20;89.50;;;;;;6277800;22;20083;-87
2024/02/04 13:32:08;;;;;;;7.25;1.70;;;14.30;89.90;;;;;;6277202;22;19999;-87
2024/02/04 13:34:33;;;;;;;6.82;1.95;;;14.30;90.10;;;;;;6277338;22;20057;-87
2024/02/04 13:36:59;;;;;;;8.65;2.22;;;14.30;90.10;;;;;;6276944;22;19996;-87
2024/02/04 13:39:25;;;;;;;10.20;2.55;;;14.40;90.20;;;;;;6276880;22;19992;-88
2024/02/04 13:41:50;;;;;;;13.38;2.58;;;14.40;90.30;;;;;;6275981;22;20035;-88
2024/02/04 13:44:16;;;;;;;10.75;2.92;;;14.60;90.30;;;;;;6275953;22;20334;-88
2024/02/04 13:46:42;;;;;;;12.48;2.90;;;14.50;90.30;;;;;;6275433;22;20082;-88
2024/02/04 13:49:09;;;;;;;13.02;3.47;;;14.60;90.40;;;;;;6275468;22;20418;-89
2024/02/04 13:51:35;;;;;;;12.93;3.20;;;14.60;90.40;;;;;;6275462;22;19999;-88
2024/02/04 13:54:01;;;;;;;17.25;4.30;;;14.60;90.30;;;;;;6274431;22;19995;-88
2024/02/04 13:56:27;;;;;;;16.20;4.18;;;14.60;90.20;;;;;;6274900;22;19996;-88
2024/02/04 13:58:52;;;;;;;14.30;3.92;;;14.70;90.20;;;;;;6275077;22;20061;-88
2024/02/04 14:01:20;;;;;;;14.27;4.57;;;14.70;90.10;;;;;;6274835;22;19992;-88
2024/02/04 14:03:45;;;;;;;16.42;3.90;;;14.70;90.00;;;;;;6274840;22;20422;-88
2024/02/04 14:06:12;;;;;;;17.05;4.90;;;14.70;90.00;;;;;;6274649;22;20049;-87
2024/02/04 14:08:38;;;;;;;18.55;4.60;;;14.70;89.80;;;;;;6274950;22;20065;-88
2024/02/04 14:11:03;;;;;;;14.90;4.32;;;14.70;89.60;;;;;;6274620;22;20000;-88
2024/02/04 14:13:29;;;;;;;16.30;4.82;;;14.80;89.40;;;;;;6273910;22;20007;-88
2024/02/04 14:15:54;;;;;;;16.80;5.15;;;14.80;89.10;;;;;;6274387;22;19996;-88
2024/02/04 14:18:20;;;;;;;19.10;4.88;;;14.80;88.90;;;;;;6274142;22;20003;-88
2024/02/04 14:20:45;;;;;;;15.48;4.57;;;14.80;88.60;;;;;;6274605;22;19992;-88
2024/02/04 14:23:11;;;;;;;14.90;5.15;;;14.80;88.20;;;;;;6274131;22;20000;-88
2024/02/04 14:25:36;;;;;;;16.48;5.38;;;14.80;88.00;;;;;;6274779;22;20000;-88
2024/02/04 14:28:02;;;;;;;17.58;4.47;;;14.80;87.70;;;;;;6274892;22;20434;-88
2024/02/04 14:30:27;;;;;;;17.38;4.43;;;14.80;87.60;;;;;;6274718;22;19998;-88
2024/02/04 14:32:53;;;;;;;16.13;4.97;;;14.80;87.50;;;;;;6274735;22;20299;-88
2024/02/04 14:35:18;;;;;;;28.90;5.93;;;14.80;87.40;;;;;;6276005;22;20008;-87
2024/02/04 14:37:44;;;;;;;34.83;6.25;;;14.70;87.20;;;;;;6278183;22;20084;-89
2024/02/04 14:40:10;;;;;;;38.13;5.63;;;14.70;87.30;;;;;;6277067;22;20003;-88
2024/02/04 14:42:35;;;;;;;37.50;5.68;;;14.70;86.40;;;;;;6277177;22;19992;-89
2024/02/04 14:45:01;;;;;;;35.15;5.38;;;14.70;85.70;;;;;;6279246;22;20007;-89
2024/02/04 14:47:27;;;;;;;34.05;4.95;;;14.70;85.20;;;;;;6278407;22;20004;-88
2024/02/04 14:49:53;;;;;;;34.75;5.32;;;14.70;84.90;;;;;;6279344;22;20007;-88
2024/02/04 14:52:19;;;;;;;37.80;5.65;;;14.60;84.90;;;;;;6280038;22;20004;-88
2024/02/04 14:54:44;;;;;;;27.85;4.90;;;14.60;85.00;;;;;;6283185;22;20007;-88
2024/02/04 14:57:10;;;;;;;30.55;5.15;;;14.60;85.20;;;;;;6282017;22;20453;-88
2024/02/04 14:59:37;;;;;;;28.20;4.63;;;14.60;85.40;;;;;;6283362;22;19999;-87
2024/02/04 15:02:06;;;;;;;31.27;4.80;;;14.50;85.70;;;;;;6284392;22;20004;-87
2024/02/04 15:04:32;;;;;;;24.10;5.00;;;14.50;86.10;;;;;;6282474;22;20049;-88
2024/02/04 15:06:58;;;;;;;19.58;3.90;;;14.50;86.50;;;;;;6280881;22;20507;-86
2024/02/04 15:09:24;;;;;;;22.58;3.97;;;14.50;87.10;;;;;;6277706;22;20008;-87
2024/02/04 15:11:50;;;;;;;27.15;4.20;;;14.60;87.60;;;;;;6276504;22;20510;-86
2024/02/04 15:14:16;;;;;;;22.45;4.15;;;14.60;88.10;;;;;;6276986;22;20012;-87
2024/02/04 15:16:42;;;;;;;23.73;3.95;;;14.50;88.40;;;;;;6276091;22;20503;-86
2024/02/04 15:19:08;;;;;;;20.80;4.05;;;14.60;89.00;;;;;;6275919;22;20090;-88
2024/02/04 15:21:34;;;;;;;19.90;3.78;;;14.70;89.30;;;;;;6277560;22;20024;-87
2024/02/04 15:24:04;;;;;;;24.30;4.53;;;14.70;89.50;;;;;;6275313;22;20039;-87
2024/02/04 15:26:33;;;;;;;20.67;4.18;;;14.80;89.60;;;;;;6276629;22;20012;-88
2024/02/04 15:29:03;;;;;;;20.58;4.05;;;14.80;89.50;;;;;;6276101;22;20012;-89
2024/02/04 15:31:30;;;;;;;17.52;4.10;;;14.80;89.40;;;;;;6276592;22;20444;-88
2024/02/04 15:33:55;;;;;;;23.40;4.88;;;14.90;89.60;;;;;;6275728;22;20007;-87
2024/02/04 15:36:21;;;;;;;19.25;4.18;;;14.90;89.60;;;;;;6275162;22;20004;-87
2024/02/04 15:38:47;;;;;;;21.02;4.22;;;14.90;89.30;;;;;;6275445;22;20000;-86
2024/02/04 15:41:12;;;;;;;19.50;5.28;;;14.90;89.10;;;;;;6275275;22;20095;-86
2024/02/04 15:43:38;;;;;;;18.23;4.30;;;15.00;89.00;;;;;;6275261;22;20007;-87
2024/02/04 15:46:09;;;;;;;22.38;4.70;;;15.00;88.80;;;;;;6275518;22;20500;-86
2024/02/04 15:48:39;;;;;;;;;;;15.00;88.60;;;;;;6276942;22;20492;-87
2024/02/04 15:51:05;;;;;;;17.67;4.18;;;15.10;88.40;;;;;;6275805;22;20237;-87
2024/02/04 15:53:31;;;;;;;22.55;4.88;;;15.10;88.20;;;;;;6275174;22;20004;-86
2024/02/04 15:55:57;;;;;;;16.48;3.97;;;15.10;88.10;;;;;;6274822;22;20003;-88
2024/02/04 15:58:27;;;;;;;13.57;4.07;;;15.10;87.90;;;;;;6274881;22;20140;-87
2024/02/04 16:00:53;;;;;;;19.00;4.53;;;15.10;87.90;;;;;;6274763;22;20003;-87
2024/02/04 16:03:19;;;;;;;15.85;4.32;;;15.00;87.80;;;;;;6274337;22;20480;-86
2024/02/04 16:05:45;;;;;;;15.70;4.15;;;15.00;87.80;;;;;;6275220;22;20003;-86
2024/02/04 16:08:12;;;;;;;16.13;4.05;;;15.00;87.70;;;;;;6275739;22;19999;-87
2024/02/04 16:10:39;;;;;;;19.70;4.05;;;14.90;87.60;;;;;;6275442;22;20035;-87
2024/02/04 16:13:09;;;;;;;17.42;4.45;;;14.90;87.60;;;;;;6275390;22;19997;-87
2024/02/04 16:15:42;;;;;;;17.63;4.15;;;14.90;87.60;;;;;;6275634;22;20086;-85
2024/02/04 16:18:08;;;;;;;15.65;3.78;;;14.90;87.60;;;;;;6275764;22;20086;-84
2024/02/04 16:20:38;;;;;;;12.90;3.83;;;14.80;87.50;;;;;;6276328;22;20004;-88
2024/02/04 16:23:04;;;;;;;12.77;3.53;;;14.80;87.50;;;;;;6277503;22;20004;-86
2024/02/04 16:25:32;;;;;;;12.75;4.05;;;14.70;87.50;;;;;;6278268;22;20068;-88
2024/02/04 16:27:58;;;;;;;14.13;3.60;;;14.70;87.40;;;;;;6279479;22;20015;-88
2024/02/04 16:30:23;;;;;;;14.38;3.53;;;14.70;87.40;;;;;;6279475;22;20071;-88
2024/02/04 16:32:49;;;;;;;12.52;3.67;;;14.70;87.40;;;;;;6276608;22;20015;-87
2024/02/04 16:35:14;;;;;;;12.25;3.63;;;14.70;87.40;;;;;;6278666;22;20026;-87
2024/02/04 16:37:40;;;;;;;13.35;3.92;;;14.70;87.40;;;;;;6278255;22;20023;-87
2024/02/04 16:40:06;;;;;;;14.32;3.35;;;14.60;87.40;;;;;;6276982;22;19991;-88
2024/02/04 16:42:35;;;;;;;13.52;3.67;;;14.70;87.20;;;;;;6252295;22;20007;-89
2024/02/04 16:45:02;;;;;;;15.18;3.92;;;14.60;87.00;;;;;;6277976;22;20008;-88
2024/02/04 16:47:27;;;;;;;12.57;3.63;;;14.70;86.90;;;;;;6276498;22;20098;-89
2024/02/04 16:49:53;;;;;;;11.55;3.38;;;14.60;86.90;;;;;;6277488;22;20007;-88
2024/02/04 16:52:18;;;;;;;18.80;4.40;;;14.60;86.60;;;;;;6252060;22;20090;-87
2024/02/04 16:54:44;;;;;;;13.02;2.75;;;14.60;86.40;;;;;;6278509;22;20011;-89
2024/02/04 16:57:11;;;;;;;11.15;3.63;;;14.60;86.40;;;;;;6281536;22;20413;-90
2024/02/04 16:59:37;;;;;;;15.85;3.42;;;14.60;86.30;;;;;;6280672;22;20031;-89
2024/02/04 17:02:03;;;;;;;11.90;3.10;;;14.50;86.20;;;;;;6282545;22;20014;-89
2024/02/04 17:04:29;;;;;;;13.57;3.22;;;14.50;86.20;;;;;;6284815;22;20003;-89
2024/02/04 17:06:55;;;;;;;13.20;3.40;;;14.50;86.20;;;;;;6283062;22;20030;-90
2024/02/04 17:09:21;;;;;;;11.50;2.85;;;14.50;86.30;;;;;;6284395;22;20004;-90
2024/02/04 17:11:47;;;;;;;10.13;2.80;;;14.40;86.20;;;;;;6287245;22;20003;-88
2024/02/04 17:14:17;;;;;;;11.40;3.60;;;14.40;86.30;;;;;;6286762;22;20000;-87
2024/02/04 17:17:12;;;;;;;10.05;3.08;;;14.40;86.40;;;;;;6288539;22;20015;-88
2024/02/04 17:20:04;;;;;;;8.77;2.65;;;14.40;86.30;;;;;;6288762;22;20438;-88
2024/02/04 17:22:33;;;;;;;12.32;2.85;;;14.40;86.40;;;;;;6295831;22;19996;-88
2024/02/04 17:25:02;;;;;;;10.77;3.10;;;14.40;86.40;;;;;;6293579;22;20014;-88
2024/02/04 17:27:31;;;;;;;9.13;2.30;;;14.30;86.40;;;;;;6294456;22;20003;-89
2024/02/04 17:30:00;;;;;;;10.93;2.67;;;14.40;86.50;;;;;;6297820;22;19993;-88
2024/02/04 17:32:29;;;;;;;9.88;2.70;;;14.30;86.50;;;;;;6299244;22;20018;-89
2024/02/04 17:34:55;;;;;;;10.27;2.92;;;14.30;86.50;;;;;;6294251;22;20004;-87
2024/02/04 17:37:21;;;;;;;9.55;2.67;;;14.60;86.70;;;;;;6289908;22;20010;-87
2024/02/04 17:39:47;;;;;;;9.20;2.60;;;14.30;86.60;;;;;;6288583;22;20382;-87
2024/02/04 17:42:13;;;;;;;10.20;2.72;;;14.30;86.60;;;;;;6285857;22;20022;-85
2024/02/04 17:44:55;;;;;;;10.13;3.13;;;14.20;86.50;;;;;;6283493;22;20008;-86
2024/02/04 17:47:29;;;;;;;8.27;2.72;;;14.20;86.60;;;;;;6281475;22;20033;-85
2024/02/04 17:49:56;;;;;;;7.80;2.25;;;15.90;87.60;;;;;;6291198;22;20082;-86
2024/02/04 17:52:44;;;;;;;8.93;2.35;;;14.20;86.70;;;;;;6290403;22;20003;-87
2024/02/04 17:55:11;;;;;;;8.40;2.60;;;14.10;86.60;;;;;;6295622;22;19999;-85
2024/02/04 17:57:41;;;;;;;8.45;2.33;;;14.70;87.00;;;;;;6288489;22;20004;-83
2024/02/04 18:03:32;;;;;;;7.85;2.28;;;14.10;86.50;;;;;;6349734;22;20039;-86
2024/02/04 18:05:59;;;;;;;;;;;14.20;86.70;;;;;;6328101;22;20018;-85
2024/02/04 18:11:28;;;;;;;7.32;2.20;;;14.20;86.60;;;;;;6355576;22;20066;-87
2024/02/04 18:17:08;;;;;;;10.32;2.80;;;14.10;86.60;;;;;;6356639;22;20578;-85
2024/02/04 18:19:33;;;;;;;8.68;2.22;;;14.10;86.60;;;;;;6337935;22;20002;-85
2024/02/04 18:21:59;;;;;;;9.52;2.38;;;14.10;86.60;;;;;;6336499;22;20019;-85
2024/02/04 18:24:24;;;;;;;7.90;2.15;;;14.10;86.60;;;;;;6338515;22;20003;-85
2024/02/04 18:26:50;;;;;;;8.57;2.10;;;14.10;86.70;;;;;;6339683;22;19998;-85
2024/02/04 18:29:16;;;;;;;7.97;2.00;;;14.10;86.70;;;;;;6336370;22;19987;-86
2024/02/04 18:31:45;;;;;;;6.90;2.28;;;14.00;86.60;;;;;;6337745;22;20028;-86
2024/02/04 18:34:12;;;;;;;8.65;2.70;;;14.00;87.10;;;;;;6337264;22;20046;-87
2024/02/04 18:36:38;;;;;;;7.53;2.22;;;14.00;86.60;;;;;;6333622;22;20066;-86
2024/02/04 18:39:06;;;;;;;8.80;2.08;;;14.00;86.60;;;;;;6335344;22;20058;-85
2024/02/04 18:41:31;;;;;;;5.20;2.00;;;14.00;86.60;;;;;;6337690;22;20034;-85
2024/02/04 18:43:57;;;;;;;7.90;2.10;;;14.30;86.80;;;;;;6336983;22;20013;-85
2024/02/04 18:46:24;;;;;;;8.35;2.20;;;14.00;86.70;;;;;;6338385;22;20017;-86
2024/02/04 18:48:50;;;;;;;6.25;2.08;;;14.00;86.70;;;;;;6338479;22;20041;-87
2024/02/04 18:51:15;;;;;;;6.93;2.20;;;14.00;86.70;;;;;;6365753;22;20011;-85
2024/02/04 18:53:41;;;;;;;6.55;1.85;;;14.00;86.70;;;;;;6339058;22;20067;-86
2024/02/04 18:56:12;;;;;;;7.30;2.08;;;14.00;86.70;;;;;;6337740;22;20006;-86
2024/02/04 18:58:38;;;;;;;7.93;2.03;;;13.90;86.70;;;;;;6336991;22;19987;-85
2024/02/04 19:01:03;;;;;;;6.45;2.15;;;13.90;86.70;;;;;;6364312;22;20010;-86
2024/02/04 19:03:29;;;;;;;6.80;2.22;;;13.90;86.70;;;;;;6336193;22;20005;-84
2024/02/04 19:05:55;;;;;;;5.82;1.67;;;13.90;86.80;;;;;;6365802;22;20081;-86
2024/02/04 19:08:20;;;;;;;6.05;1.92;;;13.90;86.80;;;;;;6339763;22;20015;-86
2024/02/04 19:10:46;;;;;;;7.75;2.10;;;14.20;87.00;;;;;;6339531;22;20011;-85
2024/02/04 19:13:11;;;;;;;7.07;2.00;;;13.90;86.80;;;;;;6338866;22;19991;-86
2024/02/04 19:15:38;;;;;;;5.35;1.80;;;13.90;86.90;;;;;;6339924;22;20022;-87
2024/02/04 19:18:04;;;;;;;7.07;1.77;;;13.90;86.80;;;;;;6339177;22;20025;-87
2024/02/04 19:20:30;;;;;;;7.55;1.98;;;13.90;86.90;;;;;;6339808;22;20006;-85
2024/02/04 19:22:56;;;;;;;5.78;2.00;;;13.90;86.90;;;;;;6364835;22;20066;-86
2024/02/04 19:25:21;;;;;;;6.63;1.90;;;13.90;86.90;;;;;;6338103;22;20002;-86
2024/02/04 19:27:48;;;;;;;5.15;1.80;;;13.90;86.90;;;;;;6339454;22;20074;-86
2024/02/04 19:30:14;;;;;;;5.80;1.70;;;13.90;86.90;;;;;;6339663;22;19991;-86
2024/02/04 19:32:45;;;;;;;4.88;1.60;;;13.90;86.90;;;;;;6338445;22;20006;-87
2024/02/04 19:56:36;;;;;;;6.65;2.03;;;13.80;86.80;;;;;;6349629;22;20018;-87
2024/02/04 19:59:05;;;;;;;5.50;1.73;;;14.40;87.10;;;;;;6339384;22;19990;-88
2024/02/04 20:01:32;;;;;;;6.18;1.85;;;13.80;86.80;;;;;;6339611;22;20001;-87
2024/02/04 20:03:58;;;;;;;4.68;1.60;;;13.90;86.80;;;;;;6339367;22;19990;-87
2024/02/04 20:06:23;;;;;;;5.57;2.05;;;13.80;86.80;;;;;;6339624;22;20016;-88
2024/02/04 20:08:49;;;;;;;5.35;1.73;;;13.80;86.80;;;;;;6339747;22;19987;-87
2024/02/04 20:11:15;;;;;;;6.03;1.90;;;13.80;86.80;;;;;;6366415;22;20025;-87
2024/02/04 20:13:42;;;;;;;4.40;1.40;;;14.00;86.90;;;;;;6339265;22;20040;-87
2024/02/04 22:54:33;;;;;;;2.83;1.40;;;13.60;86.50;;;;;;6348831;22;19999;-85
